Stations météo

réclame
Mon MeteoGroup
Fylingdales, Grande-Bretagne (3281): Température de l'air & dewpoint: 19.02.2020 05:00:00 - 25.02.2020 05:00:00 (GMT)Fylingdales, Grande-Bretagne (3281): Vitesse du vent & gusts: 19.02.2020 05:00:00 - 25.02.2020 05:00:00 (GMT)Fylingdales, Grande-Bretagne (3281): Direction du vent: 19.02.2020 05:00:00 - 25.02.2020 05:00:00 (GMT)Fylingdales, Grande-Bretagne (3281): Quantités de précipitations: 19.02.2020 05:00:00 - 25.02.2020 05:00:00 (GMT)
Date & Time tt [°C] td [°C] ff [km/h] ff [knt] fx [km/h] fx [knt] dd rr [mm]
25.02.2020 05:00:00 1,8 0,0 18 10 - - WSW -
25.02.2020 04:00:00 1,3 -0,5 21 11 - - W 0,0
25.02.2020 03:00:00 1,9 -0,2 35 19 50 27 W 0,0
25.02.2020 02:00:00 2,6 0,7 31 17 50 27 W 0,0
25.02.2020 01:00:00 2,5 0,7 26 14 52 28 W 0,0
25.02.2020 00:00:00 1,6 -0,4 22 12 50 27 W 0,0
24.02.2020 23:00:00 2,2 -0,4 34 18 54 29 W 0,0
24.02.2020 22:00:00 2,7 -0,1 46 25 74 40 W 0,0
24.02.2020 21:00:00 2,7 -0,3 46 25 74 40 W 0,0
24.02.2020 20:00:00 3,1 0,7 46 25 72 39 W 0,0
24.02.2020 19:00:00 3,8 1,2 52 28 78 42 WSW 0,0
24.02.2020 18:00:00 4,6 2,5 44 24 81 44 WSW 0,0
24.02.2020 17:00:00 6,0 4,5 44 24 70 38 WSW 0,0
24.02.2020 16:00:00 7,5 6,4 48 26 70 38 WSW 0,0
24.02.2020 15:00:00 6,3 6,2 39 21 55 30 SW 0,0
24.02.2020 14:00:00 5,1 5,0 39 21 52 28 SW 0,0
24.02.2020 13:00:00 3,8 3,6 34 18 46 25 SW 2,6
24.02.2020 12:00:00 2,3 2,1 22 12 - - SSW 4,4
24.02.2020 11:00:00 1,1 1,0 22 12 - - S 2,0
24.02.2020 10:00:00 0,5 0,3 31 17 52 28 SE 0,0
24.02.2020 09:00:00 -0,2 -0,4 37 20 52 28 SE 0,0
24.02.2020 08:00:00 -0,2 -0,3 31 17 - - SE 0,0
24.02.2020 07:00:00 0,0 -0,1 24 13 - - SE 0,0
24.02.2020 06:00:00 0,0 -0,2 16 9 - - SSE 0,0
24.02.2020 05:00:00 0,3 -0,3 18 10 - - S 0,4
24.02.2020 04:00:00 2,0 0,3 16 9 - - S 0,0
24.02.2020 03:00:00 1,6 -0,7 5 3 - - S 0,0
24.02.2020 02:00:00 0,9 -0,9 13 7 - - SSW 0,0
24.02.2020 01:00:00 0,9 -0,9 13 7 - - SW 0,0
24.02.2020 00:00:00 0,7 -0,9 11 6 50 27 SW 0,0
23.02.2020 23:00:00 -0,1 -1,6 9 5 - - SSW 0,0
23.02.2020 22:00:00 1,4 -1,4 11 6 - - W 0,0
23.02.2020 21:00:00 2,0 -0,8 18 10 - - W 0,0
23.02.2020 20:00:00 2,2 -1,1 16 9 - - WSW 0,0
23.02.2020 19:00:00 2,7 -0,6 28 15 50 27 W 0,0
23.02.2020 18:00:00 2,7 -0,9 29 16 48 26 W 0,0
23.02.2020 17:00:00 3,7 -0,9 34 18 59 32 W 0,0
23.02.2020 16:00:00 4,3 -0,7 50 27 68 37 W 0,0
23.02.2020 15:00:00 4,7 -0,3 52 28 76 41 W 0,0
23.02.2020 14:00:00 4,8 -0,2 54 29 76 41 W 0,0
23.02.2020 13:00:00 4,6 0,4 48 26 70 38 W 0,0
23.02.2020 12:00:00 4,1 2,4 41 22 52 28 WNW 0,0
23.02.2020 11:00:00 3,4 2,6 29 16 50 27 WNW 0,4
23.02.2020 10:00:00 3,6 3,0 28 15 - - WNW 0,2
23.02.2020 09:00:00 3,5 3,2 16 9 - - W 0,0
23.02.2020 08:00:00 3,3 3,2 24 13 - - SW 0,0
23.02.2020 07:00:00 3,4 3,3 24 13 - - SSW 0,4
23.02.2020 06:00:00 3,2 3,0 26 14 - - SSW 0,4
23.02.2020 05:00:00 3,4 3,1 29 16 - - SW 0,4
23.02.2020 04:00:00 3,5 3,2 34 18 46 25 SW 0,6
23.02.2020 03:00:00 3,7 3,4 37 20 59 32 SW 0,2
23.02.2020 02:00:00 3,6 3,3 37 20 57 31 SW 0,2
23.02.2020 01:00:00 3,2 2,2 41 22 68 37 SW 0,0
23.02.2020 00:00:00 3,7 1,7 41 22 59 32 WSW 0,0
22.02.2020 23:00:00 3,5 1,9 34 18 63 34 WSW 0,0
22.02.2020 22:00:00 4,3 -0,3 37 20 65 35 WSW 0,0
22.02.2020 21:00:00 4,1 0,0 35 19 61 33 WSW 0,0
22.02.2020 20:00:00 3,9 0,5 39 21 65 35 WSW 0,0
22.02.2020 19:00:00 4,1 -0,6 37 20 65 35 WSW 0,0
22.02.2020 18:00:00 4,5 -0,9 42 23 67 36 W 0,0
22.02.2020 17:00:00 3,9 -0,4 41 22 81 44 W 0,0
22.02.2020 16:00:00 4,3 0,8 37 20 70 38 WSW 0,2
22.02.2020 15:00:00 4,0 2,4 46 25 74 40 W 0,4
22.02.2020 14:00:00 2,9 0,2 50 27 106 57 W 0,2
22.02.2020 13:00:00 6,8 0,0 55 30 81 44 WSW 0,0
22.02.2020 12:00:00 6,7 0,1 55 30 91 49 WSW 0,0
22.02.2020 11:00:00 6,5 1,5 50 27 83 45 WSW 0,0
22.02.2020 10:00:00 6,1 1,4 48 26 74 40 WSW 0,0
22.02.2020 09:00:00 5,3 3,4 37 20 68 37 WSW 0,2
22.02.2020 08:00:00 5,1 2,9 35 19 55 30 WSW 0,0
22.02.2020 07:00:00 4,9 3,9 29 16 72 39 W 0,2
22.02.2020 06:00:00 7,4 5,7 46 25 87 47 WSW 0,4
22.02.2020 05:00:00 7,2 6,6 48 26 80 43 W 4,2
22.02.2020 04:00:00 7,9 7,7 52 28 72 39 SW 0,4
22.02.2020 03:00:00 7,7 7,3 54 29 74 40 SSW 0,2
22.02.2020 02:00:00 7,5 7,2 50 27 70 38 SSW 0,8
22.02.2020 01:00:00 7,4 7,0 46 25 70 38 SSW 1,0
22.02.2020 00:00:00 7,3 6,8 52 28 70 38 SW 0,6
21.02.2020 23:00:00 7,3 6,7 50 27 78 42 SSW 0,4
21.02.2020 22:00:00 7,6 6,6 50 27 85 46 SW 0,0
21.02.2020 21:00:00 8,0 6,2 55 30 78 42 SW 0,0
21.02.2020 20:00:00 7,9 6,0 48 26 76 41 SW 0,0
21.02.2020 19:00:00 8,1 6,3 50 27 74 40 SW 0,0
21.02.2020 18:00:00 8,0 6,2 52 28 70 38 SW 0,0
21.02.2020 17:00:00 8,2 6,2 50 27 74 40 SW 0,0
21.02.2020 16:00:00 8,6 5,9 54 29 80 43 SW 0,0
21.02.2020 15:00:00 8,3 5,9 44 24 68 37 SW 0,0
21.02.2020 14:00:00 8,3 5,4 46 25 78 42 SW 0,0
21.02.2020 13:00:00 8,2 5,0 54 29 87 47 SW 0,0
21.02.2020 12:00:00 7,9 4,5 55 30 78 42 SW 0,0
21.02.2020 11:00:00 5,5 4,1 42 23 55 30 SW 0,0
21.02.2020 10:00:00 4,2 3,4 42 23 59 32 SSW 0,0
21.02.2020 09:00:00 3,5 2,1 31 17 59 32 SSW 0,0
21.02.2020 08:00:00 3,0 1,8 41 22 61 33 SSW 0,0
21.02.2020 07:00:00 3,2 1,6 39 21 52 28 SSW 0,0
21.02.2020 06:00:00 3,5 1,5 34 18 48 26 SSW 0,0
21.02.2020 05:00:00 3,3 1,5 35 19 48 26 SW 0,0
21.02.2020 04:00:00 3,5 1,6 28 15 - - SW 0,0
21.02.2020 03:00:00 3,4 1,2 24 13 - - SW 0,0
21.02.2020 02:00:00 3,3 0,8 28 15 48 26 SW 0,0
21.02.2020 01:00:00 2,6 0,1 28 15 - - WSW 0,0
21.02.2020 00:00:00 2,3 -0,5 22 12 54 29 WSW 0,0
20.02.2020 23:00:00 2,7 -0,4 34 18 57 31 WSW 0,0
20.02.2020 22:00:00 2,4 -0,5 28 15 52 28 WSW 0,0
20.02.2020 21:00:00 1,9 -1,2 29 16 55 30 WSW 0,0
20.02.2020 20:00:00 1,6 -1,1 31 17 55 30 WSW 0,0
20.02.2020 19:00:00 1,5 -0,9 34 18 54 29 WSW 0,0
20.02.2020 18:00:00 1,1 -0,8 31 17 55 30 WSW 0,0
20.02.2020 17:00:00 3,2 -1,7 35 19 59 32 W 0,0
20.02.2020 16:00:00 3,7 -2,1 41 22 63 34 W 0,0
20.02.2020 15:00:00 4,1 0,3 39 21 55 30 W 0,0
20.02.2020 14:00:00 4,1 2,0 37 20 54 29 W 0,0
20.02.2020 13:00:00 4,5 3,6 28 15 55 30 WNW 0,6
20.02.2020 12:00:00 4,0 2,8 41 22 59 32 WNW 0,8
20.02.2020 11:00:00 6,5 5,6 31 17 65 35 WSW 1,6
20.02.2020 10:00:00 7,0 6,5 42 23 68 37 SSW 0,2
20.02.2020 09:00:00 7,2 5,6 44 24 78 42 SSW 0,0
20.02.2020 08:00:00 7,3 5,4 55 30 78 42 SSW 0,0
20.02.2020 07:00:00 7,3 5,7 48 26 68 37 SSW 0,0
20.02.2020 06:00:00 7,6 6,0 50 27 72 39 SSW 0,0
20.02.2020 05:00:00 7,6 6,4 42 23 59 32 SSW 0,0
20.02.2020 04:00:00 7,4 6,5 39 21 54 29 SSW 0,0
20.02.2020 03:00:00 7,2 6,5 34 18 50 27 SSW 0,0
20.02.2020 02:00:00 7,2 6,5 39 21 54 29 SW 0,0
20.02.2020 01:00:00 7,0 6,6 39 21 55 30 SW 0,0
20.02.2020 00:00:00 6,6 6,4 34 18 48 26 SSW 0,0
19.02.2020 23:00:00 6,4 6,3 35 19 54 29 SSW 0,0
19.02.2020 22:00:00 6,1 6,1 37 20 52 28 SSW 0,0
19.02.2020 21:00:00 5,5 5,4 35 19 55 30 SSW 0,0
19.02.2020 20:00:00 5,3 5,2 31 17 46 25 SSW 0,0
19.02.2020 19:00:00 4,7 4,5 29 16 48 26 S 0,0
19.02.2020 18:00:00 4,0 3,9 31 17 50 27 S 0,2
19.02.2020 17:00:00 3,6 3,5 31 17 - - S 0,2
19.02.2020 16:00:00 3,0 2,8 34 18 50 27 SSW 1,4
19.02.2020 15:00:00 3,3 2,6 37 20 48 26 SSW 0,4
19.02.2020 14:00:00 3,4 2,3 35 19 50 27 SSW 0,0
19.02.2020 13:00:00 3,9 2,1 34 18 48 26 SW 0,0
19.02.2020 12:00:00 4,4 1,9 29 16 - - SW 0,0
19.02.2020 11:00:00 4,5 1,2 22 12 - - SW 0,0
19.02.2020 10:00:00 3,5 0,6 26 14 - - WSW 0,0
19.02.2020 09:00:00 2,3 -0,2 24 13 - - WSW 0,0
19.02.2020 08:00:00 1,5 -0,8 28 15 - - W 0,0
19.02.2020 07:00:00 1,1 -1,1 24 13 - - W 0,0
19.02.2020 06:00:00 1,5 -1,0 31 17 46 25 W -
19.02.2020 05:00:00 1,5 -1,0 28 15 - - WSW -

tt = Température de l'air
td = dewpoint
ff = Vitesse du vent
fx = gusts
dd = Direction du vent
rr = Quantités de précipitations

stations d'obs. à proximité